Time,TemperatureF,DewpointF,PressureIn,WindDirection,WindDirectionDegrees,WindSpeedMPH,WindSpeedGustMPH,Humidity,HourlyPrecipIn,Conditions,Clouds,dailyrainin,SolarRadiationWatts/m^2,SoftwareType,DateUTC
2013-02-13 00:01:00,23.0,20.0,-100.00,North,-999,-999.0,7.0,86,0.00,,,-99.99,0.000000,,2013-02-13 07:01:00,
2013-02-13 00:11:00,23.0,20.0,-100.00,North,-999,-999.0,5.0,86,0.00,,,-99.99,0.000000,,2013-02-13 07:11:00,
2013-02-13 00:21:00,23.0,19.0,-100.00,North,-999,-999.0,4.0,85,0.00,,,-99.99,0.000000,,2013-02-13 07:21:00,
2013-02-13 00:31:00,23.0,19.0,-100.00,North,-999,-999.0,4.0,83,0.00,,,-99.99,0.000000,,2013-02-13 07:31:00,
2013-02-13 00:41:00,23.0,18.0,-100.00,North,-999,-999.0,3.0,81,0.00,,,-99.99,0.000000,,2013-02-13 07:41:00,
2013-02-13 00:50:00,23.0,19.0,-100.00,North,-999,-999.0,3.0,83,0.00,,,-99.99,0.000000,,2013-02-13 07:50:00,
2013-02-13 00:51:00,23.0,18.0,-100.00,North,-999,-999.0,2.0,81,0.00,,,-99.99,0.000000,,2013-02-13 07:51:00,
2013-02-13 01:01:00,23.0,18.0,-100.00,North,-999,-999.0,3.0,81,0.00,,,-99.99,0.000000,,2013-02-13 08:01:00,
2013-02-13 01:11:00,23.0,19.0,-100.00,North,-999,-999.0,3.0,83,0.00,,,-99.99,0.000000,,2013-02-13 08:11:00,
2013-02-13 01:21:00,23.0,19.0,-100.00,North,-999,-999.0,3.0,83,0.00,,,-99.99,0.000000,,2013-02-13 08:21:00,
2013-02-13 01:31:00,23.0,19.0,-100.00,North,-999,-999.0,3.0,83,0.00,,,-99.99,0.000000,,2013-02-13 08:31:00,
2013-02-13 01:42:00,23.0,19.0,-100.00,North,-999,-999.0,3.0,83,0.00,,,-99.99,0.000000,,2013-02-13 08:42:00,
2013-02-13 02:21:00,24.0,20.0,-100.00,North,-999,-999.0,3.0,85,0.00,,,-99.99,0.000000,,2013-02-13 09:21:00,
2013-02-13 02:32:00,23.0,19.0,-100.00,North,-999,-999.0,4.0,85,0.00,,,-99.99,0.000000,,2013-02-13 09:32:00,
2013-02-13 02:42:00,23.0,20.0,-100.00,North,-999,-999.0,3.0,85,0.00,,,-99.99,0.000000,,2013-02-13 09:42:00,
2013-02-13 02:52:00,23.0,20.0,-100.00,North,-999,-999.0,3.0,86,0.00,,,-99.99,0.000000,,2013-02-13 09:52:00,
2013-02-13 03:01:00,23.0,20.0,-100.00,North,-999,-999.0,4.0,86,0.00,,,-99.99,0.000000,,2013-02-13 10:01:00,
2013-02-13 03:11:00,23.0,19.0,-100.00,North,-999,-999.0,3.0,85,0.00,,,-99.99,0.000000,,2013-02-13 10:11:00,
2013-02-13 03:21:00,23.0,19.0,-100.00,North,-999,-999.0,3.0,85,0.00,,,-99.99,0.000000,,2013-02-13 10:21:00,
2013-02-13 03:31:00,23.0,19.0,-100.00,North,-999,-999.0,3.0,84,0.00,,,-99.99,0.000000,,2013-02-13 10:31:00,
2013-02-13 03:41:00,23.0,19.0,-100.00,North,-999,-999.0,3.0,84,0.00,,,-99.99,0.000000,,2013-02-13 10:41:00,
2013-02-13 03:51:00,23.0,19.0,-100.00,North,-999,-999.0,2.0,84,0.00,,,-99.99,0.000000,,2013-02-13 10:51:00,
2013-02-13 04:01:00,23.0,19.0,-100.00,North,-999,-999.0,2.0,85,0.00,,,-99.99,0.000000,,2013-02-13 11:01:00,
2013-02-13 04:11:00,23.0,20.0,-100.00,North,-999,-999.0,1.0,86,0.00,,,-99.99,0.000000,,2013-02-13 11:11:00,
2013-02-13 04:22:00,23.0,20.0,-100.00,North,-999,-999.0,0.0,86,0.00,,,-99.99,0.000000,,2013-02-13 11:22:00,
2013-02-13 04:31:00,23.0,19.0,-100.00,North,-999,-999.0,0.0,86,0.00,,,-99.99,0.000000,,2013-02-13 11:31:00,
2013-02-13 04:42:00,23.0,19.0,-100.00,North,-999,-999.0,2.0,85,0.00,,,-99.99,0.000000,,2013-02-13 11:42:00,
2013-02-13 04:52:00,23.0,19.0,-100.00,North,-999,-999.0,3.0,86,0.00,,,-99.99,0.000000,,2013-02-13 11:52:00,
2013-02-13 05:02:00,23.0,19.0,-100.00,North,-999,-999.0,3.0,86,0.00,,,-99.99,0.000000,,2013-02-13 12:02:00,
2013-02-13 05:11:00,23.0,20.0,-100.00,North,-999,-999.0,4.0,86,0.00,,,-99.99,0.000000,,2013-02-13 12:11:00,
2013-02-13 05:21:00,23.0,20.0,-100.00,North,-999,-999.0,4.0,86,0.00,,,-99.99,0.000000,,2013-02-13 12:21:00,
2013-02-13 05:31:00,23.0,20.0,-100.00,North,-999,-999.0,5.0,86,0.00,,,-99.99,0.000000,,2013-02-13 12:31:00,
2013-02-13 05:42:00,23.0,20.0,-100.00,North,-999,-999.0,5.0,85,0.00,,,-99.99,0.000000,,2013-02-13 12:42:00,
2013-02-13 05:50:00,24.0,19.0,-100.00,North,-999,-999.0,6.0,81,0.00,,,-99.99,0.000000,,2013-02-13 12:50:00,
2013-02-13 05:51:00,24.0,19.0,-100.00,North,-999,-999.0,7.0,83,0.00,,,-99.99,0.000000,,2013-02-13 12:51:00,
2013-02-13 06:02:00,24.0,20.0,-100.00,North,-999,-999.0,7.0,82,0.00,,,-99.99,0.000000,,2013-02-13 13:02:00,
2013-02-13 06:11:00,24.0,19.0,-100.00,North,-999,-999.0,6.0,81,0.00,,,-99.99,0.000000,,2013-02-13 13:11:00,
2013-02-13 06:21:00,24.0,19.0,-100.00,North,-999,-999.0,6.0,81,0.00,,,-99.99,0.000000,,2013-02-13 13:21:00,
2013-02-13 06:31:00,24.0,19.0,-100.00,North,-999,-999.0,6.0,81,0.00,,,-99.99,0.000000,,2013-02-13 13:31:00,
2013-02-13 06:41:00,24.0,19.0,-100.00,North,-999,-999.0,6.0,81,0.00,,,-99.99,0.000000,,2013-02-13 13:41:00,
2013-02-13 07:22:00,24.0,20.0,-100.00,North,-999,-999.0,2.0,84,0.00,,,-99.99,0.000000,,2013-02-13 14:22:00,
2013-02-13 07:32:00,24.0,20.0,-100.00,North,-999,-999.0,3.0,85,0.00,,,-99.99,1.000000,,2013-02-13 14:32:00,
2013-02-13 07:42:00,24.0,20.0,-100.00,North,-999,-999.0,3.0,84,0.00,,,-99.99,2.000000,,2013-02-13 14:42:00,
2013-02-13 07:52:00,24.0,20.0,-100.00,North,-999,-999.0,4.0,83,0.00,,,-99.99,4.000000,,2013-02-13 14:52:00,
2013-02-13 08:01:00,24.0,19.0,-100.00,North,-999,-999.0,3.0,81,0.00,,,-99.99,7.000000,,2013-02-13 15:01:00,
2013-02-13 08:11:00,24.0,19.0,-100.00,North,-999,-999.0,2.0,81,0.00,,,-99.99,16.000000,,2013-02-13 15:11:00,
2013-02-13 08:21:00,25.0,20.0,-100.00,North,-999,-999.0,4.0,81,0.00,,,-99.99,33.000000,,2013-02-13 15:21:00,
2013-02-13 08:31:00,25.0,20.0,-100.00,North,-999,-999.0,3.0,81,0.00,,,-99.99,45.000000,,2013-02-13 15:31:00,
2013-02-13 08:41:00,25.0,20.0,-100.00,North,-999,-999.0,1.0,80,0.00,,,-99.99,60.000000,,2013-02-13 15:41:00,
2013-02-13 08:51:00,25.0,19.0,-100.00,North,-999,-999.0,2.0,78,0.00,,,-99.99,70.000000,,2013-02-13 15:51:00,
2013-02-13 09:01:00,26.0,20.0,-100.00,North,-999,-999.0,3.0,78,0.00,,,-99.99,94.000000,,2013-02-13 16:01:00,
2013-02-13 09:11:00,26.0,19.0,-100.00,North,-999,-999.0,3.0,77,0.00,,,-99.99,115.000000,,2013-02-13 16:11:00,
2013-02-13 09:21:00,26.0,20.0,-100.00,North,-999,-999.0,3.0,77,0.00,,,-99.99,128.000000,,2013-02-13 16:21:00,
2013-02-13 09:31:00,27.0,20.0,-100.00,North,-999,-999.0,3.0,76,0.00,,,-99.99,151.000000,,2013-02-13 16:31:00,
2013-02-13 09:41:00,27.0,20.0,-100.00,North,-999,-999.0,2.0,74,0.00,,,-99.99,190.000000,,2013-02-13 16:41:00,
2013-02-13 09:51:00,28.0,20.0,-100.00,North,-999,-999.0,2.0,73,0.00,,,-99.99,245.000000,,2013-02-13 16:51:00,
2013-02-13 10:01:00,29.0,20.0,-100.00,North,-999,-999.0,3.0,70,0.00,,,-99.99,269.000000,,2013-02-13 17:01:00,
2013-02-13 10:11:00,31.0,20.0,-100.00,North,-999,-999.0,3.0,64,0.00,,,-99.99,297.000000,,2013-02-13 17:11:00,
2013-02-13 10:21:00,28.0,20.0,-100.00,North,-999,-999.0,5.0,71,0.00,,,-99.99,284.000000,,2013-02-13 17:21:00,
2013-02-13 10:31:00,28.0,21.0,-100.00,North,-999,-999.0,6.0,72,0.00,,,-99.99,323.000000,,2013-02-13 17:31:00,
2013-02-13 10:41:00,29.0,20.0,-100.00,North,-999,-999.0,5.0,70,0.00,,,-99.99,343.000000,,2013-02-13 17:41:00,
2013-02-13 10:50:00,33.0,22.0,-100.00,North,-999,-999.0,3.0,63,0.00,,,-99.99,324.000000,,2013-02-13 17:50:00,
2013-02-13 10:52:00,29.0,20.0,-100.00,North,-999,-999.0,4.0,70,0.00,,,-99.99,406.000000,,2013-02-13 17:52:00,
2013-02-13 11:01:00,30.0,21.0,-100.00,North,-999,-999.0,4.0,70,0.00,,,-99.99,330.000000,,2013-02-13 18:01:00,
2013-02-13 11:11:00,33.0,22.0,-100.00,North,-999,-999.0,3.0,63,0.00,,,-99.99,324.000000,,2013-02-13 18:11:00,
2013-02-13 11:22:00,33.0,22.0,-100.00,North,-999,-999.0,3.0,63,0.00,,,-99.99,324.000000,,2013-02-13 18:22:00,
2013-02-13 11:31:00,33.0,22.0,-100.00,North,-999,-999.0,3.0,63,0.00,,,-99.99,324.000000,,2013-02-13 18:31:00,
2013-02-13 11:41:00,33.0,22.0,-100.00,North,-999,-999.0,3.0,63,0.00,,,-99.99,324.000000,,2013-02-13 18:41:00,
2013-02-13 12:21:00,35.0,21.0,-100.00,North,-999,-999.0,9.0,56,0.00,,,-99.99,729.000000,,2013-02-13 19:21:00,
2013-02-13 12:32:00,37.0,23.0,-100.00,North,-999,-999.0,9.0,56,0.00,,,-99.99,730.000000,,2013-02-13 19:32:00,
2013-02-13 12:42:00,35.0,21.0,-100.00,North,-999,-999.0,9.0,57,0.00,,,-99.99,740.000000,,2013-02-13 19:42:00,
2013-02-13 12:52:00,36.0,22.0,-100.00,North,-999,-999.0,6.0,58,0.00,,,-99.99,751.000000,,2013-02-13 19:52:00,
2013-02-13 13:01:00,38.0,22.0,-100.00,North,-999,-999.0,7.0,54,0.00,,,-99.99,762.000000,,2013-02-13 20:01:00,
2013-02-13 13:11:00,37.0,21.0,-100.00,North,-999,-999.0,11.0,53,0.00,,,-99.99,431.000000,,2013-02-13 20:11:00,
2013-02-13 13:21:00,36.0,22.0,-100.00,North,-999,-999.0,12.0,55,0.00,,,-99.99,821.000000,,2013-02-13 20:21:00,
2013-02-13 13:31:00,37.0,24.0,-100.00,North,-999,-999.0,10.0,57,0.00,,,-99.99,778.000000,,2013-02-13 20:31:00,
2013-02-13 13:41:00,38.0,24.0,-100.00,North,-999,-999.0,9.0,57,0.00,,,-99.99,973.000000,,2013-02-13 20:41:00,
2013-02-13 13:51:00,40.0,23.0,-100.00,North,-999,-999.0,6.0,50,0.00,,,-99.99,656.000000,,2013-02-13 20:51:00,
2013-02-13 14:01:00,36.0,21.0,-100.00,North,-999,-999.0,10.0,53,0.00,,,-99.99,474.000000,,2013-02-13 21:01:00,
2013-02-13 14:11:00,38.0,24.0,-100.00,North,-999,-999.0,10.0,56,0.00,,,-99.99,524.000000,,2013-02-13 21:11:00,
2013-02-13 14:21:00,38.0,24.0,-100.00,North,-999,-999.0,6.0,57,0.00,,,-99.99,904.000000,,2013-02-13 21:21:00,
2013-02-13 14:31:00,38.0,23.0,-100.00,North,-999,-999.0,6.0,54,0.00,,,-99.99,469.000000,,2013-02-13 21:31:00,
2013-02-13 14:42:00,42.0,25.0,-100.00,North,-999,-999.0,5.0,49,0.00,,,-99.99,828.000000,,2013-02-13 21:42:00,
2013-02-13 14:51:00,38.0,24.0,-100.00,North,-999,-999.0,8.0,57,0.00,,,-99.99,385.000000,,2013-02-13 21:51:00,
2013-02-13 15:01:00,38.0,25.0,-100.00,North,-999,-999.0,6.0,59,0.00,,,-99.99,512.000000,,2013-02-13 22:01:00,
2013-02-13 15:11:00,38.0,24.0,-100.00,North,-999,-999.0,5.0,57,0.00,,,-99.99,721.000000,,2013-02-13 22:11:00,
2013-02-13 15:21:00,41.0,24.0,-100.00,North,-999,-999.0,5.0,52,0.00,,,-99.99,514.000000,,2013-02-13 22:21:00,
2013-02-13 15:31:00,41.0,24.0,-100.00,North,-999,-999.0,5.0,52,0.00,,,-99.99,514.000000,,2013-02-13 22:31:00,
2013-02-13 15:42:00,38.0,22.0,-100.00,North,-999,-999.0,10.0,54,0.00,,,-99.99,333.000000,,2013-02-13 22:42:00,
2013-02-13 15:50:00,38.0,26.0,-100.00,North,-999,-999.0,9.0,61,0.00,,,-99.99,280.000000,,2013-02-13 22:50:00,
2013-02-13 15:51:00,37.0,24.0,-100.00,North,-999,-999.0,10.0,57,0.00,,,-99.99,570.000000,,2013-02-13 22:51:00,
2013-02-13 16:01:00,37.0,23.0,-100.00,North,-999,-999.0,10.0,57,0.00,,,-99.99,249.000000,,2013-02-13 23:01:00,
2013-02-13 16:11:00,38.0,26.0,-100.00,North,-999,-999.0,9.0,61,0.00,,,-99.99,280.000000,,2013-02-13 23:11:00,
2013-02-13 16:21:00,38.0,26.0,-100.00,North,-999,-999.0,9.0,61,0.00,,,-99.99,280.000000,,2013-02-13 23:21:00,
2013-02-13 16:31:00,38.0,26.0,-100.00,North,-999,-999.0,9.0,61,0.00,,,-99.99,280.000000,,2013-02-13 23:31:00,
2013-02-13 16:41:00,38.0,26.0,-100.00,North,-999,-999.0,9.0,61,0.00,,,-99.99,280.000000,,2013-02-13 23:41:00,
2013-02-13 17:22:00,33.0,25.0,-100.00,North,-999,-999.0,5.0,74,0.00,,,-99.99,74.000000,,2013-02-14 00:22:00,
2013-02-13 17:32:00,32.0,26.0,-100.00,North,-999,-999.0,5.0,76,0.00,,,-99.99,89.000000,,2013-02-14 00:32:00,
2013-02-13 17:42:00,33.0,26.0,-100.00,North,-999,-999.0,3.0,75,0.00,,,-99.99,59.000000,,2013-02-14 00:42:00,
2013-02-13 17:52:00,33.0,25.0,-100.00,North,-999,-999.0,3.0,74,0.00,,,-99.99,76.000000,,2013-02-14 00:52:00,
2013-02-13 18:01:00,33.0,25.0,-100.00,North,-999,-999.0,4.0,73,0.00,,,-99.99,89.000000,,2013-02-14 01:01:00,
2013-02-13 18:11:00,33.0,25.0,-100.00,North,-999,-999.0,4.0,74,0.00,,,-99.99,27.000000,,2013-02-14 01:11:00,
2013-02-13 18:21:00,32.0,26.0,-100.00,North,-999,-999.0,4.0,80,0.00,,,-99.99,9.000000,,2013-02-14 01:21:00,
2013-02-13 18:31:00,32.0,26.0,-100.00,North,-999,-999.0,4.0,80,0.00,,,-99.99,9.000000,,2013-02-14 01:31:00,
2013-02-13 18:41:00,31.0,25.0,-100.00,North,-999,-999.0,3.0,79,0.00,,,-99.99,0.000000,,2013-02-14 01:41:00,
2013-02-13 18:51:00,30.0,25.0,-100.00,North,-999,-999.0,2.0,81,0.00,,,-99.99,0.000000,,2013-02-14 01:51:00,
2013-02-13 19:01:00,30.0,26.0,-100.00,North,-999,-999.0,2.0,83,0.00,,,-99.99,0.000000,,2013-02-14 02:01:00,
2013-02-13 19:11:00,30.0,26.0,-100.00,North,-999,-999.0,2.0,85,0.00,,,-99.99,0.000000,,2013-02-14 02:11:00,
2013-02-13 19:21:00,30.0,26.0,-100.00,North,-999,-999.0,2.0,85,0.00,,,-99.99,0.000000,,2013-02-14 02:21:00,
2013-02-13 19:31:00,29.0,26.0,-100.00,North,-999,-999.0,0.0,86,0.00,,,-99.99,0.000000,,2013-02-14 02:31:00,
2013-02-13 19:41:00,29.0,26.0,-100.00,North,-999,-999.0,0.0,86,0.00,,,-99.99,0.000000,,2013-02-14 02:41:00,
2013-02-13 19:51:00,29.0,26.0,-100.00,North,-999,-999.0,0.0,86,0.00,,,-99.99,0.000000,,2013-02-14 02:51:00,
2013-02-13 20:02:00,29.0,25.0,-100.00,North,-999,-999.0,4.0,85,0.00,,,-99.99,0.000000,,2013-02-14 03:02:00,
2013-02-13 20:11:00,29.0,24.0,-100.00,North,-999,-999.0,3.0,83,0.00,,,-99.99,0.000000,,2013-02-14 03:11:00,
2013-02-13 20:21:00,28.0,24.0,-100.00,North,-999,-999.0,4.0,84,0.00,,,-99.99,0.000000,,2013-02-14 03:21:00,
2013-02-13 20:31:00,28.0,24.0,-100.00,North,-999,-999.0,3.0,85,0.00,,,-99.99,0.000000,,2013-02-14 03:31:00,
2013-02-13 20:42:00,28.0,24.0,-100.00,North,-999,-999.0,3.0,85,0.00,,,-99.99,0.000000,,2013-02-14 03:42:00,
2013-02-13 20:50:00,28.0,24.0,-100.00,North,-999,-999.0,2.0,85,0.00,,,-99.99,0.000000,,2013-02-14 03:50:00,
2013-02-13 20:51:00,28.0,24.0,-100.00,North,-999,-999.0,3.0,86,0.00,,,-99.99,0.000000,,2013-02-14 03:51:00,
2013-02-13 21:01:00,28.0,24.0,-100.00,North,-999,-999.0,2.0,85,0.00,,,-99.99,0.000000,,2013-02-14 04:01:00,
2013-02-13 21:11:00,28.0,24.0,-100.00,North,-999,-999.0,2.0,85,0.00,,,-99.99,0.000000,,2013-02-14 04:11:00,
2013-02-13 21:21:00,28.0,24.0,-100.00,North,-999,-999.0,2.0,85,0.00,,,-99.99,0.000000,,2013-02-14 04:21:00,
2013-02-13 21:31:00,28.0,24.0,-100.00,North,-999,-999.0,2.0,85,0.00,,,-99.99,0.000000,,2013-02-14 04:31:00,
2013-02-13 21:41:00,28.0,24.0,-100.00,North,-999,-999.0,2.0,85,0.00,,,-99.99,0.000000,,2013-02-14 04:41:00,
2013-02-13 22:22:00,27.0,22.0,-100.00,North,-999,-999.0,3.0,82,0.00,,,-99.99,0.000000,,2013-02-14 05:22:00,
2013-02-13 22:32:00,27.0,22.0,-100.00,North,-999,-999.0,4.0,78,0.00,,,-99.99,0.000000,,2013-02-14 05:32:00,
2013-02-13 22:42:00,27.0,22.0,-100.00,North,-999,-999.0,3.0,83,0.00,,,-99.99,0.000000,,2013-02-14 05:42:00,
2013-02-13 22:52:00,26.0,22.0,-100.00,North,-999,-999.0,8.0,83,0.00,,,-99.99,0.000000,,2013-02-14 05:52:00,
2013-02-13 23:01:00,28.0,23.0,-100.00,North,-999,-999.0,7.0,83,0.00,,,-99.99,0.000000,,2013-02-14 06:01:00,
2013-02-13 23:11:00,28.0,23.0,-100.00,North,-999,-999.0,7.0,82,0.00,,,-99.99,0.000000,,2013-02-14 06:11:00,
2013-02-13 23:21:00,29.0,22.0,-100.00,North,-999,-999.0,9.0,75,0.00,,,-99.99,0.000000,,2013-02-14 06:21:00,
2013-02-13 23:31:00,30.0,22.0,-100.00,North,-999,-999.0,11.0,71,0.00,,,-99.99,0.000000,,2013-02-14 06:31:00,
2013-02-13 23:41:00,27.0,22.0,-100.00,North,-999,-999.0,5.0,79,0.00,,,-99.99,0.000000,,2013-02-14 06:41:00,
2013-02-13 23:51:00,29.0,22.0,-100.00,North,-999,-999.0,11.0,74,0.00,,,-99.99,0.000000,,2013-02-14 06:51:00,